Crosslake, Minnesota
Current Conditions -  °F | °C
As of 10:14 PM on Friday 31 Oct 2014 (Local Time) from KPWC Reporting Station
Clear Clear  
Wind Chill: 21°   Ceiling: Unl
Heat Index: 21°   Visibility: 10mi
Dew Point: 18°   Wind: 0mph
Humidity: 86%   Direction: NA
Pressure: 30.46"   Gusts: NA
Location:  46.68°N, 94.09°W
Report Text: KPWC 010314Z AUTO 00000KT 10SM CLR M06/M08 A3046 RMK AO2
Loading
Personal Weather Stations






























Interactive Weather Map
Tropical Storm Tracking
New forecast layout! Learn more

10-Day Weather Forecast

Advertisements
Track Severe Weather on mobile